MSC Carolina — 3ECV5 — position and weather

sailwx.info

Track history (hours):
 
Tides and Currents Weather Stations Pressure Air Temp Water Temp Dewpoint Dewpoint Depression Visibility Wind Speed Wind Dir Waves Ship Positions

MSC Carolina

Last reported at 2015-Jul-31 12:31 UTC. Time now 2015-Jul-31 13:20 UTC.
Position S 29°53' E 031°01'.

Length 275 m; draft 10.7 m.

Type: Ship (hazmat cat B). MMSI: 371475000.

Date/timePositionNaut miles runAvg speedWind from/ knotsBaromVisibWave heightAir tempDewpointWater temp
2015-Jul-31 12:31S 29°53' E 031°01'0 0.0
2015-Jul-31 11:28S 29°53' E 031°01'0 0.0
2015-Jul-31 10:31S 29°53' E 031°01'0 0.0
2015-Jul-31 09:28S 29°53' E 031°01'0 0.0
2015-Jul-31 08:31S 29°53' E 031°01'0 0.0
2015-Jul-31 07:28S 29°53' E 031°01'0 0.0
2015-Jul-31 06:31S 29°53' E 031°01'0 0.0
2015-Jul-31 05:31S 29°53' E 031°01'0 0.0
2015-Jul-31 04:28S 29°53' E 031°01'0 0.0
2015-Jul-31 03:31S 29°53' E 031°01'0 0.0
2015-Jul-31 02:31S 29°53' E 031°01'0 0.0
2015-Jul-31 01:31S 29°53' E 031°01'1 0.6
2015-Jul-31 00:33S 29°52' E 031°02'5 5.3
2015-Jul-30 23:33S 29°49' E 031°07'1 0.8
2015-Jul-30 22:33S 29°49' E 031°07'4 4.2
2015-Jul-30 21:33S 29°50' E 031°12'3 2.9
2015-Jul-30 20:33S 29°49' E 031°15'1 0.9
2015-Jul-30 19:27S 29°49' E 031°16'1 0.8
2015-Jul-30 18:33S 29°48' E 031°17'1 0.7
2015-Jul-30 17:33S 29°48' E 031°18'1 0.8
2015-Jul-30 16:33S 29°48' E 031°19'1 0.8
2015-Jul-30 15:33S 29°48' E 031°20'1 0.8
2015-Jul-30 14:33S 29°48' E 031°20'1 0.7
2015-Jul-30 13:30S 29°48' E 031°21'1 0.6
2015-Jul-30 12:33S 29°48' E 031°22'1 0.6
2015-Jul-30 11:33S 29°48' E 031°23'1 0.7
2015-Jul-30 10:32S 29°48' E 031°23'1 0.8
2015-Jul-30 09:32S 29°49' E 031°24'1 0.6
2015-Jul-30 08:32S 29°49' E 031°25'0 0.3
2015-Jul-30 07:32S 29°49' E 031°25'0 0.3
2015-Jul-30 06:32S 29°50' E 031°25'0 0.4
2015-Jul-30 05:32S 29°50' E 031°24'1 0.6
2015-Jul-30 04:32S 29°51' E 031°25'1 0.6
2015-Jul-30 03:32S 29°51' E 031°25'1 0.8
2015-Jul-30 02:32S 29°52' E 031°25'1 0.9
2015-Jul-30 01:33S 29°53' E 031°26'1 1.2
2015-Jul-30 00:33S 29°53' E 031°27'1 1.4
2015-Jul-29 23:34S 29°55' E 031°28'1 1.4
2015-Jul-29 22:33S 29°55' E 031°26'9 8.5
2015-Jul-29 21:33S 29°50' E 031°18'2 1.9
2015-Jul-29 20:33S 29°52' E 031°19'2 1.7
2015-Jul-29 19:33S 29°53' E 031°19'1 1.1
2015-Jul-29 18:33S 29°54' E 031°18'10 9.6
2015-Jul-29 17:33S 29°58' E 031°08'1211.8
2015-Jul-29 16:33S 30°07' E 030°59'1212.2
2015-Jul-29 15:33S 30°18' E 030°53'1312.5
2015-Jul-29 14:33S 30°29' E 030°47'1312.7
2015-Jul-29 13:33S 30°41' E 030°40'1312.6
2015-Jul-29 12:33S 30°51' E 030°32'1312.9
2015-Jul-29 11:33S 31°02' E 030°23'23411.0
2015-Jul-28 14:23S 33°41' E 027°01'  
2015-Jul-26 01:29S 33°54' E 025°46'3214.8
2015-Jul-25 23:19S 33°55' E 026°25'1114.5
2015-Jul-25 22:33S 33°51' E 026°37'1515.0
2015-Jul-25 21:32S 33°45' E 026°54'8115.8
2015-Jul-25 16:25S 33°05' E 028°19'  
Track history (hours):
 
Tides and Currents Weather Stations Pressure Air Temp Water Temp Dewpoint Dewpoint Depression Visibility Wind Speed Wind Dir Waves Ship Positions

MSC Carolina

Last reported at 2015-Jul-31 12:31 UTC. Time now 2015-Jul-31 13:20 UTC.
Position S 29°53' E 031°01'.

Length 275 m; draft 10.7 m.

Type: Ship (hazmat cat B). MMSI: 371475000.

Date/timePositionNaut miles runAvg speedWind from/ knotsBaromVisibWave heightAir tempDewpointWater temp
2015-Jul-31 12:31S 29°53' E 031°01'0 0.0
2015-Jul-31 11:28S 29°53' E 031°01'0 0.0
2015-Jul-31 10:31S 29°53' E 031°01'0 0.0
2015-Jul-31 09:28S 29°53' E 031°01'0 0.0
2015-Jul-31 08:31S 29°53' E 031°01'0 0.0
2015-Jul-31 07:28S 29°53' E 031°01'0 0.0
2015-Jul-31 06:31S 29°53' E 031°01'0 0.0
2015-Jul-31 05:31S 29°53' E 031°01'0 0.0
2015-Jul-31 04:28S 29°53' E 031°01'0 0.0
2015-Jul-31 03:31S 29°53' E 031°01'0 0.0
2015-Jul-31 02:31S 29°53' E 031°01'0 0.0
2015-Jul-31 01:31S 29°53' E 031°01'1 0.6
2015-Jul-31 00:33S 29°52' E 031°02'5 5.3
2015-Jul-30 23:33S 29°49' E 031°07'1 0.8
2015-Jul-30 22:33S 29°49' E 031°07'4 4.2
2015-Jul-30 21:33S 29°50' E 031°12'3 2.9
2015-Jul-30 20:33S 29°49' E 031°15'1 0.9
2015-Jul-30 19:27S 29°49' E 031°16'1 0.8
2015-Jul-30 18:33S 29°48' E 031°17'1 0.7
2015-Jul-30 17:33S 29°48' E 031°18'1 0.8
2015-Jul-30 16:33S 29°48' E 031°19'1 0.8
2015-Jul-30 15:33S 29°48' E 031°20'1 0.8
2015-Jul-30 14:33S 29°48' E 031°20'1 0.7
2015-Jul-30 13:30S 29°48' E 031°21'1 0.6
2015-Jul-30 12:33S 29°48' E 031°22'1 0.6
2015-Jul-30 11:33S 29°48' E 031°23'1 0.7
2015-Jul-30 10:32S 29°48' E 031°23'1 0.8
2015-Jul-30 09:32S 29°49' E 031°24'1 0.6
2015-Jul-30 08:32S 29°49' E 031°25'0 0.3
2015-Jul-30 07:32S 29°49' E 031°25'0 0.3
2015-Jul-30 06:32S 29°50' E 031°25'0 0.4
2015-Jul-30 05:32S 29°50' E 031°24'1 0.6
2015-Jul-30 04:32S 29°51' E 031°25'1 0.6
2015-Jul-30 03:32S 29°51' E 031°25'1 0.8
2015-Jul-30 02:32S 29°52' E 031°25'1 0.9
2015-Jul-30 01:33S 29°53' E 031°26'1 1.2
2015-Jul-30 00:33S 29°53' E 031°27'1 1.4
2015-Jul-29 23:34S 29°55' E 031°28'1 1.4
2015-Jul-29 22:33S 29°55' E 031°26'9 8.5
2015-Jul-29 21:33S 29°50' E 031°18'2 1.9
2015-Jul-29 20:33S 29°52' E 031°19'2 1.7
2015-Jul-29 19:33S 29°53' E 031°19'1 1.1
2015-Jul-29 18:33S 29°54' E 031°18'10 9.6
2015-Jul-29 17:33S 29°58' E 031°08'1211.8
2015-Jul-29 16:33S 30°07' E 030°59'1212.2
2015-Jul-29 15:33S 30°18' E 030°53'1312.5
2015-Jul-29 14:33S 30°29' E 030°47'1312.7
2015-Jul-29 13:33S 30°41' E 030°40'1312.6
2015-Jul-29 12:33S 30°51' E 030°32'1312.9
2015-Jul-29 11:33S 31°02' E 030°23'23411.0
2015-Jul-28 14:23S 33°41' E 027°01'  
2015-Jul-26 01:29S 33°54' E 025°46'3214.8
2015-Jul-25 23:19S 33°55' E 026°25'1114.5
2015-Jul-25 22:33S 33°51' E 026°37'1515.0
2015-Jul-25 21:32S 33°45' E 026°54'8115.8
2015-Jul-25 16:25S 33°05' E 028°19'  

Dump ship's entire track history